Time;durP1;ratioP1;P1;durP2;ratioP2;P2;SDS_P1;SDS_P2;PMS_P1;PMS_P2;Temp;Humidity;BMP_temperature;BMP_pressure;BME280_temperature;BME280_humidity;BME280_pressure;Samples;Min_cycle;Max_cycle;Signal;HPM_P1;HPM_P2
2021/09/12 00:00:12;;;;;;;15.27;10.80;;;14.20;99.90;;;;;;21020029;28;20066;-57
2021/09/12 00:10:14;;;;;;;11.77;10.15;;;14.50;99.90;;;;;;21014492;28;20377;-57
2021/09/12 00:20:16;;;;;;;12.85;8.35;;;14.70;99.90;;;;;;21015703;28;20035;-58
2021/09/12 00:30:18;;;;;;;11.52;7.75;;;14.60;99.90;;;;;;21000281;28;20041;-56
2021/09/12 00:40:23;;;;;;;12.65;8.50;;;14.40;99.90;;;;;;21017557;28;20101;-55
2021/09/12 00:50:25;;;;;;;12.40;8.68;;;14.10;99.90;;;;;;21017106;28;20037;-57
2021/09/12 01:00:27;;;;;;;12.27;8.98;;;14.20;99.90;;;;;;21018958;28;20028;-57
2021/09/12 01:10:43;;;;;;;12.48;9.05;;;14.00;99.90;;;;;;21017579;28;20428;-57
2021/09/12 01:20:46;;;;;;;13.10;8.63;;;13.70;99.90;;;;;;21011097;28;20028;-59
2021/09/12 01:30:49;;;;;;;12.52;7.22;;;13.10;99.90;;;;;;21003307;28;20466;-57
2021/09/12 01:40:53;;;;;;;10.98;7.88;;;13.00;99.90;;;;;;21000295;28;20049;-59
2021/09/12 01:50:55;;;;;;;10.50;7.53;;;13.00;99.90;;;;;;21002474;28;20071;-57
2021/09/12 02:00:58;;;;;;;9.60;7.10;;;12.70;99.90;;;;;;21012041;28;20082;-55
2021/09/12 02:11:01;;;;;;;11.50;8.02;;;12.40;99.90;;;;;;21007675;28;20041;-56
2021/09/12 02:21:05;;;;;;;11.65;7.10;;;12.40;99.90;;;;;;20999981;28;20047;-58
2021/09/12 02:31:08;;;;;;;12.20;7.88;;;12.50;99.90;;;;;;21000791;28;20470;-58
2021/09/12 02:41:11;;;;;;;9.85;6.78;;;12.60;99.90;;;;;;20997565;28;20102;-57
2021/09/12 02:51:14;;;;;;;11.32;7.53;;;12.20;99.90;;;;;;20999627;28;20040;-58
2021/09/12 03:01:17;;;;;;;8.00;6.43;;;12.10;99.90;;;;;;21002760;28;20032;-55
2021/09/12 03:11:20;;;;;;;9.70;6.47;;;12.10;99.90;;;;;;20998703;28;20028;-56
2021/09/12 03:21:25;;;;;;;6.38;4.85;;;12.20;99.90;;;;;;21001352;28;20033;-57
2021/09/12 03:31:29;;;;;;;6.82;5.20;;;12.20;99.90;;;;;;20999576;28;20043;-57
2021/09/12 03:41:33;;;;;;;7.30;5.18;;;11.80;99.90;;;;;;20993783;28;20056;-57
2021/09/12 03:51:36;;;;;;;7.13;5.72;;;11.50;99.90;;;;;;20992611;28;20053;-54
2021/09/12 04:01:39;;;;;;;7.32;4.32;;;11.20;99.90;;;;;;20993138;28;20040;-58
2021/09/12 04:11:45;;;;;;;6.28;3.75;;;11.30;99.90;;;;;;20990310;28;20036;-55
2021/09/12 04:21:47;;;;;;;5.15;3.60;;;11.30;99.90;;;;;;20990469;28;20086;-55
2021/09/12 04:31:50;;;;;;;5.55;4.25;;;11.30;99.90;;;;;;20990065;28;20086;-55
2021/09/12 04:41:52;;;;;;;4.90;3.70;;;11.20;99.90;;;;;;20978218;28;20056;-57
2021/09/12 04:51:55;;;;;;;8.43;3.80;;;11.00;99.90;;;;;;20997727;28;20036;-56
2021/09/12 05:01:57;;;;;;;5.50;4.22;;;10.90;99.90;;;;;;20994834;28;20082;-57
2021/09/12 05:11:59;;;;;;;5.20;3.92;;;11.00;99.90;;;;;;20988880;28;20024;-58
2021/09/12 05:22:04;;;;;;;7.75;4.78;;;11.10;99.90;;;;;;20989549;28;20032;-56
2021/09/12 05:32:07;;;;;;;5.10;3.95;;;11.20;99.90;;;;;;21005431;28;20070;-55
2021/09/12 05:42:09;;;;;;;5.28;3.70;;;11.30;99.90;;;;;;21004003;28;20044;-57
2021/09/12 05:52:13;;;;;;;6.10;4.55;;;11.40;99.90;;;;;;21003637;28;20090;-55
2021/09/12 06:02:16;;;;;;;9.23;4.22;;;11.50;99.90;;;;;;21006648;28;20419;-58
2021/09/12 06:12:19;;;;;;;4.85;4.10;;;11.70;99.90;;;;;;21006093;28;20028;-58
2021/09/12 06:22:22;;;;;;;7.57;4.55;;;12.00;99.90;;;;;;21000004;28;20029;-56
2021/09/12 06:32:26;;;;;;;6.07;4.82;;;12.20;99.90;;;;;;20998772;28;20379;-56
2021/09/12 06:42:29;;;;;;;8.18;4.85;;;12.50;99.90;;;;;;20997228;28;20090;-57
2021/09/12 06:52:32;;;;;;;7.47;3.97;;;12.80;99.90;;;;;;20996781;28;20036;-53
2021/09/12 07:02:37;;;;;;;5.18;3.97;;;13.90;99.90;;;;;;20995870;28;20490;-56
2021/09/12 07:12:39;;;;;;;14.88;4.72;;;15.00;99.90;;;;;;20995074;28;20040;-52
2021/09/12 07:22:41;;;;;;;4.95;3.72;;;16.10;99.20;;;;;;20993978;28;20423;-57
2021/09/12 07:32:45;;;;;;;5.60;4.05;;;17.40;97.80;;;;;;20992972;28;20129;-54
2021/09/12 07:42:48;;;;;;;8.70;4.18;;;18.70;96.00;;;;;;20992972;28;20044;-51
2021/09/12 07:52:51;;;;;;;7.82;4.10;;;19.80;95.10;;;;;;20991297;28;20098;-56
2021/09/12 08:02:53;;;;;;;6.13;4.30;;;20.50;93.60;;;;;;20989946;28;20101;-55
2021/09/12 08:13:01;;;;;;;8.87;4.30;;;20.90;94.00;;;;;;20990023;28;20032;-54
2021/09/12 08:23:04;;;;;;;6.30;4.28;;;21.40;91.90;;;;;;20988984;28;20036;-57
2021/09/12 08:33:12;;;;;;;5.93;4.47;;;21.80;89.90;;;;;;20988851;28;20039;-54
2021/09/12 08:43:14;;;;;;;4.65;4.15;;;22.10;89.60;;;;;;20989638;28;20053;-55
2021/09/12 08:53:16;;;;;;;5.00;4.15;;;22.70;89.90;;;;;;20992414;28;20040;-58
2021/09/12 09:03:18;;;;;;;6.00;3.95;;;22.70;87.60;;;;;;21000276;28;20041;-54
2021/09/12 09:13:36;;;;;;;4.88;4.05;;;22.80;87.40;;;;;;21008782;28;20032;-58
2021/09/12 09:23:44;;;;;;;4.03;3.63;;;23.00;84.20;;;;;;21009083;28;20037;-56
2021/09/12 09:33:46;;;;;;;;;;;23.30;83.50;;;;;;21010876;28;20062;-54
2021/09/12 09:43:52;;;;;;;5.65;4.07;;;23.30;81.80;;;;;;21007716;28;19920;-56
2021/09/12 09:53:56;;;;;;;8.70;4.88;;;23.20;84.40;;;;;;21010205;28;20128;-57
2021/09/12 10:03:58;;;;;;;6.63;4.65;;;23.60;83.30;;;;;;21012887;28;20037;-57
2021/09/12 10:14:02;;;;;;;5.72;4.45;;;23.70;80.10;;;;;;20986888;28;20639;-58
2021/09/12 10:24:08;;;;;;;4.68;4.25;;;24.00;80.30;;;;;;21005225;28;20028;-56
2021/09/12 10:34:12;;;;;;;6.28;5.10;;;24.30;83.30;;;;;;20998094;28;20070;-56
2021/09/12 10:44:14;;;;;;;7.22;5.30;;;24.90;83.30;;;;;;21040471;28;20048;-55
2021/09/12 10:54:16;;;;;;;9.95;5.80;;;24.80;84.20;;;;;;20996782;28;20036;-55
2021/09/12 11:04:27;;;;;;;7.03;5.85;;;25.40;82.80;;;;;;20995424;28;20054;-56
2021/09/12 11:14:29;;;;;;;7.40;5.82;;;25.60;82.00;;;;;;20993749;28;20055;-58
2021/09/12 11:24:38;;;;;;;6.63;5.25;;;25.50;82.10;;;;;;20993578;28;20025;-54
2021/09/12 11:34:48;;;;;;;7.43;6.35;;;25.90;84.70;;;;;;20994545;28;20427;-56
2021/09/12 11:44:52;;;;;;;7.38;5.10;;;26.10;77.60;;;;;;20994025;28;20052;-56
2021/09/12 11:54:54;;;;;;;6.50;5.18;;;25.70;80.20;;;;;;20973654;28;20078;-55
2021/09/12 12:04:58;;;;;;;7.32;6.18;;;25.80;79.90;;;;;;20992090;28;20071;-53
2021/09/12 12:15:00;;;;;;;7.88;6.40;;;25.80;80.60;;;;;;20992305;28;20063;-57
2021/09/12 12:25:06;;;;;;;8.20;6.68;;;25.80;81.20;;;;;;20990164;28;20430;-56
2021/09/12 12:35:16;;;;;;;9.77;7.57;;;25.40;80.00;;;;;;20988680;28;20028;-54
2021/09/12 12:45:28;;;;;;;10.50;7.85;;;25.40;80.60;;;;;;20993934;28;20486;-56
2021/09/12 12:55:29;;;;;;;8.38;7.45;;;25.20;79.50;;;;;;20992943;28;20032;-56
2021/09/12 13:05:34;;;;;;;9.75;7.82;;;25.10;81.00;;;;;;20988730;28;20029;-57
2021/09/12 13:15:38;;;;;;;8.20;6.55;;;24.90;82.20;;;;;;21002731;28;20076;-59
2021/09/12 13:25:40;;;;;;;9.98;6.20;;;23.70;81.30;;;;;;20991671;28;20032;-55
2021/09/12 13:35:42;;;;;;;6.63;5.72;;;23.20;85.70;;;;;;20986788;28;20024;-56
2021/09/12 13:45:44;;;;;;;6.38;5.70;;;23.90;84.20;;;;;;20987280;28;20056;-58
2021/09/12 13:55:46;;;;;;;6.50;5.68;;;24.40;81.10;;;;;;20987913;28;20040;-57
2021/09/12 14:05:48;;;;;;;5.75;4.93;;;24.30;79.80;;;;;;21006760;28;20036;-56
2021/09/12 14:15:50;;;;;;;6.65;4.60;;;24.10;81.60;;;;;;21001804;28;20466;-59
2021/09/12 14:25:58;;;;;;;6.22;4.20;;;24.00;78.30;;;;;;21003933;28;20044;-60
2021/09/12 14:36:00;;;;;;;5.65;4.57;;;23.50;78.80;;;;;;21009974;28;20029;-59
2021/09/12 14:46:03;;;;;;;6.00;4.95;;;22.80;78.60;;;;;;20994255;28;20579;-57
2021/09/12 14:56:05;;;;;;;7.43;4.78;;;22.40;78.00;;;;;;21004369;28;20028;-58
2021/09/12 15:06:08;;;;;;;4.72;4.22;;;21.80;80.30;;;;;;20992382;28;20039;-58
2021/09/12 15:16:11;;;;;;;6.13;4.43;;;21.40;80.60;;;;;;20995129;28;20075;-59
2021/09/12 15:26:13;;;;;;;7.32;4.22;;;21.00;81.30;;;;;;21000103;28;20094;-58
2021/09/12 15:36:15;;;;;;;6.70;4.78;;;20.30;83.20;;;;;;21002107;28;20419;-59
2021/09/12 15:46:17;;;;;;;5.97;4.60;;;19.90;84.90;;;;;;20997559;28;20052;-60
2021/09/12 15:56:24;;;;;;;7.00;4.93;;;19.50;86.30;;;;;;21004537;28;20032;-60
2021/09/12 16:06:26;;;;;;;5.53;4.93;;;19.00;87.50;;;;;;20999995;28;20040;-58
2021/09/12 16:16:28;;;;;;;6.93;5.43;;;18.20;90.50;;;;;;21002911;28;20045;-60
2021/09/12 16:26:30;;;;;;;7.95;5.40;;;17.40;92.30;;;;;;21005280;28;20056;-59
2021/09/12 16:36:32;;;;;;;7.65;5.00;;;16.70;93.50;;;;;;21001792;28;20047;-57
2021/09/12 16:56:37;;;;;;;8.18;4.78;;;;;;;;;;20987087;28;20067;-59
2021/09/12 17:06:39;;;;;;;9.60;5.15;;;15.10;96.40;;;;;;21010815;28;20029;-58
2021/09/12 17:16:44;;;;;;;8.35;5.47;;;14.80;97.10;;;;;;21087758;28;20112;-55
2021/09/12 17:26:47;;;;;;;10.38;5.55;;;14.50;97.50;;;;;;21098621;28;20039;-56
2021/09/12 17:36:49;;;;;;;7.45;5.22;;;14.30;98.10;;;;;;21102210;28;20040;-59
2021/09/12 17:46:51;;;;;;;6.90;4.97;;;14.10;98.50;;;;;;21099117;28;20392;-57
2021/09/12 17:56:54;;;;;;;9.48;6.63;;;13.90;98.90;;;;;;21069874;28;20033;-58
2021/09/12 18:06:57;;;;;;;8.77;6.40;;;13.70;98.80;;;;;;20994060;28;20036;-58
2021/09/12 18:16:59;;;;;;;6.85;5.07;;;13.70;99.30;;;;;;21014853;28;20058;-57
2021/09/12 18:27:01;;;;;;;8.57;5.70;;;13.40;99.90;;;;;;21010856;28;20367;-58
2021/09/12 18:37:03;;;;;;;7.97;5.53;;;13.20;99.90;;;;;;21006015;28;20094;-54
2021/09/12 18:47:06;;;;;;;8.77;6.22;;;13.00;99.90;;;;;;21009023;28;20090;-54
2021/09/12 18:57:08;;;;;;;9.10;7.30;;;12.90;99.90;;;;;;21011825;28;20034;-54
2021/09/12 19:07:11;;;;;;;12.95;6.10;;;12.80;99.90;;;;;;21010008;28;20123;-55
2021/09/12 19:17:17;;;;;;;7.07;5.43;;;12.80;99.90;;;;;;21007318;28;20020;-57
2021/09/12 19:27:19;;;;;;;9.35;5.72;;;12.90;99.90;;;;;;21008308;28;20397;-55
2021/09/12 19:37:21;;;;;;;8.32;6.63;;;12.70;99.90;;;;;;21007638;28;20055;-58
2021/09/12 19:47:25;;;;;;;8.85;7.80;;;12.60;99.90;;;;;;20983263;28;20044;-54
2021/09/12 19:57:27;;;;;;;7.07;5.65;;;12.50;99.90;;;;;;20999240;28;20044;-56
2021/09/12 20:07:28;;;;;;;8.25;6.10;;;12.50;99.90;;;;;;20996671;28;20559;-57
2021/09/12 20:17:30;;;;;;;9.07;7.40;;;12.30;99.90;;;;;;20994690;28;20035;-54
2021/09/12 20:27:32;;;;;;;9.07;5.70;;;12.20;99.90;;;;;;20991810;28;20378;-55
2021/09/12 20:37:35;;;;;;;9.75;6.32;;;12.40;99.90;;;;;;20990924;28;20040;-55
2021/09/12 20:47:37;;;;;;;7.97;6.13;;;12.50;99.90;;;;;;20990464;28;20097;-55
2021/09/12 20:57:40;;;;;;;8.80;5.68;;;12.30;99.90;;;;;;20994865;28;20028;-57
2021/09/12 21:07:42;;;;;;;13.63;7.25;;;12.20;99.90;;;;;;21016409;28;20344;-54
2021/09/12 21:17:44;;;;;;;10.95;7.60;;;12.10;99.90;;;;;;21015770;28;20347;-58
2021/09/12 21:27:46;;;;;;;12.43;7.70;;;12.10;99.90;;;;;;21015959;28;20028;-55
2021/09/12 21:37:49;;;;;;;8.88;6.82;;;12.20;99.90;;;;;;21014918;28;20451;-55
2021/09/12 21:47:51;;;;;;;8.65;6.22;;;12.10;99.90;;;;;;21014485;28;20032;-58
2021/09/12 21:57:54;;;;;;;8.80;6.57;;;12.00;99.90;;;;;;21013367;28;20386;-52
2021/09/12 22:07:56;;;;;;;9.60;7.45;;;11.90;99.90;;;;;;21010152;28;20043;-55
2021/09/12 22:17:58;;;;;;;8.88;7.15;;;12.00;99.90;;;;;;21000346;28;20025;-57
2021/09/12 22:28:01;;;;;;;11.30;7.18;;;12.10;99.90;;;;;;20999363;28;20028;-55
2021/09/12 22:38:03;;;;;;;10.07;7.53;;;11.90;99.90;;;;;;20999425;28;20102;-54
2021/09/12 22:48:06;;;;;;;10.23;7.32;;;11.90;99.90;;;;;;20998462;28;20053;-54
2021/09/12 22:58:08;;;;;;;12.77;8.07;;;11.90;99.90;;;;;;20995692;28;20379;-57
2021/09/12 23:08:10;;;;;;;12.70;10.35;;;11.90;99.90;;;;;;20996615;28;20097;-56
2021/09/12 23:18:12;;;;;;;11.32;7.88;;;11.90;99.90;;;;;;20994662;28;20436;-57
2021/09/12 23:28:14;;;;;;;12.48;9.82;;;11.80;99.90;;;;;;20993174;28;20036;-53
2021/09/12 23:38:16;;;;;;;14.05;8.82;;;12.00;99.90;;;;;;20995686;28;20044;-55
2021/09/12 23:48:18;;;;;;;10.73;8.32;;;12.00;99.90;;;;;;20994855;28;20033;-57
2021/09/12 23:58:20;;;;;;;14.10;8.88;;;11.90;99.90;;;;;;20991211;28;20040;-56
